sensor_id;sensor_type;location;lat;lon;timestamp;temperature;humidity
23769;DHT22;12064;50.890;5.424;2023-07-13T00:00:16;24.60;70.80
23769;DHT22;12064;50.890;5.424;2023-07-13T00:09:07;24.50;70.90
23769;DHT22;12064;50.890;5.424;2023-07-13T00:17:58;24.50;71.20
23769;DHT22;12064;50.890;5.424;2023-07-13T00:26:51;24.50;71.60
23769;DHT22;12064;50.890;5.424;2023-07-13T00:35:42;24.40;71.90
23769;DHT22;12064;50.890;5.424;2023-07-13T00:44:34;24.40;72.00
23769;DHT22;12064;50.890;5.424;2023-07-13T00:53:26;24.30;72.20
23769;DHT22;12064;50.890;5.424;2023-07-13T01:02:18;24.30;72.40
23769;DHT22;12064;50.890;5.424;2023-07-13T01:11:08;24.30;72.70
23769;DHT22;12064;50.890;5.424;2023-07-13T01:19:59;24.30;72.90
23769;DHT22;12064;50.890;5.424;2023-07-13T01:28:50;24.20;72.90
23769;DHT22;12064;50.890;5.424;2023-07-13T01:37:41;24.20;73.00
23769;DHT22;12064;50.890;5.424;2023-07-13T01:46:31;24.20;73.10
23769;DHT22;12064;50.890;5.424;2023-07-13T01:55:22;24.10;73.50
23769;DHT22;12064;50.890;5.424;2023-07-13T02:04:13;24.10;73.80
23769;DHT22;12064;50.890;5.424;2023-07-13T02:13:06;24.00;73.70
23769;DHT22;12064;50.890;5.424;2023-07-13T02:21:56;24.00;73.70
23769;DHT22;12064;50.890;5.424;2023-07-13T02:30:48;24.00;74.20
23769;DHT22;12064;50.890;5.424;2023-07-13T02:39:39;24.00;74.20
23769;DHT22;12064;50.890;5.424;2023-07-13T02:48:30;23.90;74.60
23769;DHT22;12064;50.890;5.424;2023-07-13T02:57:21;23.90;74.50
23769;DHT22;12064;50.890;5.424;2023-07-13T03:06:12;23.90;74.70
23769;DHT22;12064;50.890;5.424;2023-07-13T03:15:03;23.80;74.70
23769;DHT22;12064;50.890;5.424;2023-07-13T03:23:54;23.80;74.90
23769;DHT22;12064;50.890;5.424;2023-07-13T03:32:44;23.80;75.10
23769;DHT22;12064;50.890;5.424;2023-07-13T03:41:36;23.70;75.20
23769;DHT22;12064;50.890;5.424;2023-07-13T03:50:26;23.70;75.60
23769;DHT22;12064;50.890;5.424;2023-07-13T03:59:17;23.70;75.60
23769;DHT22;12064;50.890;5.424;2023-07-13T04:08:08;23.60;75.60
23769;DHT22;12064;50.890;5.424;2023-07-13T04:16:58;23.60;75.80
23769;DHT22;12064;50.890;5.424;2023-07-13T04:25:51;23.60;76.10
23769;DHT22;12064;50.890;5.424;2023-07-13T04:34:43;23.60;76.50
23769;DHT22;12064;50.890;5.424;2023-07-13T04:43:33;23.60;77.00
23769;DHT22;12064;50.890;5.424;2023-07-13T04:52:24;23.50;77.00
23769;DHT22;12064;50.890;5.424;2023-07-13T05:01:15;23.50;77.00
23769;DHT22;12064;50.890;5.424;2023-07-13T05:10:09;23.20;78.00
23769;DHT22;12064;50.890;5.424;2023-07-13T05:19:00;23.00;79.40
23769;DHT22;12064;50.890;5.424;2023-07-13T05:27:50;23.00;79.80
23769;DHT22;12064;50.890;5.424;2023-07-13T05:36:41;22.70;81.10
23769;DHT22;12064;50.890;5.424;2023-07-13T05:45:32;22.60;81.90
23769;DHT22;12064;50.890;5.424;2023-07-13T05:54:22;22.50;82.90
23769;DHT22;12064;50.890;5.424;2023-07-13T06:03:14;22.40;83.50
23769;DHT22;12064;50.890;5.424;2023-07-13T06:12:05;22.40;84.10
23769;DHT22;12064;50.890;5.424;2023-07-13T06:20:56;22.30;84.50
23769;DHT22;12064;50.890;5.424;2023-07-13T06:29:47;22.30;85.10
23769;DHT22;12064;50.890;5.424;2023-07-13T06:38:38;22.30;85.80
23769;DHT22;12064;50.890;5.424;2023-07-13T06:47:29;22.30;85.70
23769;DHT22;12064;50.890;5.424;2023-07-13T06:56:20;22.10;86.90
23769;DHT22;12064;50.890;5.424;2023-07-13T07:05:10;22.20;86.50
23769;DHT22;12064;50.890;5.424;2023-07-13T07:14:01;22.30;86.50
23769;DHT22;12064;50.890;5.424;2023-07-13T07:22:52;22.30;86.70
23769;DHT22;12064;50.890;5.424;2023-07-13T07:31:42;22.50;85.70
23769;DHT22;12064;50.890;5.424;2023-07-13T07:40:39;22.60;85.30
23769;DHT22;12064;50.890;5.424;2023-07-13T07:49:30;22.60;85.10
23769;DHT22;12064;50.890;5.424;2023-07-13T07:58:21;22.60;85.20
23769;DHT22;12064;50.890;5.424;2023-07-13T08:07:12;22.60;85.10
23769;DHT22;12064;50.890;5.424;2023-07-13T08:16:05;22.70;84.90
23769;DHT22;12064;50.890;5.424;2023-07-13T08:24:56;22.70;85.10
23769;DHT22;12064;50.890;5.424;2023-07-13T08:33:49;22.70;85.10
23769;DHT22;12064;50.890;5.424;2023-07-13T08:42:54;22.70;85.00
23769;DHT22;12064;50.890;5.424;2023-07-13T08:52:02;22.70;85.00
23769;DHT22;12064;50.890;5.424;2023-07-13T09:10:46;22.80;84.90
23769;DHT22;12064;50.890;5.424;2023-07-13T09:19:40;22.90;85.10
23769;DHT22;12064;50.890;5.424;2023-07-13T09:28:41;22.90;84.80
23769;DHT22;12064;50.890;5.424;2023-07-13T09:37:33;22.90;85.20
23769;DHT22;12064;50.890;5.424;2023-07-13T09:46:23;23.00;85.10
23769;DHT22;12064;50.890;5.424;2023-07-13T09:55:30;23.00;84.10
23769;DHT22;12064;50.890;5.424;2023-07-13T10:04:29;23.10;83.80
23769;DHT22;12064;50.890;5.424;2023-07-13T10:13:33;23.10;83.20
23769;DHT22;12064;50.890;5.424;2023-07-13T10:31:37;23.20;82.40
23769;DHT22;12064;50.890;5.424;2023-07-13T10:40:56;23.20;81.50
23769;DHT22;12064;50.890;5.424;2023-07-13T10:49:52;23.30;81.40
23769;DHT22;12064;50.890;5.424;2023-07-13T10:58:44;23.30;81.10
23769;DHT22;12064;50.890;5.424;2023-07-13T11:07:52;23.30;80.80
23769;DHT22;12064;50.890;5.424;2023-07-13T11:16:46;23.40;80.10
23769;DHT22;12064;50.890;5.424;2023-07-13T11:25:37;23.40;80.00
23769;DHT22;12064;50.890;5.424;2023-07-13T11:34:36;23.50;79.70
23769;DHT22;12064;50.890;5.424;2023-07-13T11:43:30;23.40;78.90
23769;DHT22;12064;50.890;5.424;2023-07-13T11:52:24;23.40;78.70
23769;DHT22;12064;50.890;5.424;2023-07-13T12:01:30;23.50;78.90
23769;DHT22;12064;50.890;5.424;2023-07-13T12:10:30;23.60;79.00
23769;DHT22;12064;50.890;5.424;2023-07-13T12:19:26;23.70;79.80
23769;DHT22;12064;50.890;5.424;2023-07-13T12:28:35;23.70;78.90
23769;DHT22;12064;50.890;5.424;2023-07-13T12:37:27;23.70;78.30
23769;DHT22;12064;50.890;5.424;2023-07-13T12:46:20;23.80;77.60
23769;DHT22;12064;50.890;5.424;2023-07-13T12:55:17;23.80;77.50
23769;DHT22;12064;50.890;5.424;2023-07-13T13:04:09;23.90;77.50
23769;DHT22;12064;50.890;5.424;2023-07-13T13:13:03;23.90;77.20
23769;DHT22;12064;50.890;5.424;2023-07-13T13:21:55;23.90;76.20
23769;DHT22;12064;50.890;5.424;2023-07-13T13:30:49;24.00;76.20
23769;DHT22;12064;50.890;5.424;2023-07-13T13:39:40;24.00;76.50
23769;DHT22;12064;50.890;5.424;2023-07-13T13:48:35;24.10;76.10
23769;DHT22;12064;50.890;5.424;2023-07-13T13:57:27;24.00;76.30
23769;DHT22;12064;50.890;5.424;2023-07-13T14:06:18;24.00;78.00
23769;DHT22;12064;50.890;5.424;2023-07-13T14:15:19;24.10;77.70
23769;DHT22;12064;50.890;5.424;2023-07-13T14:24:10;24.10;77.80
23769;DHT22;12064;50.890;5.424;2023-07-13T14:33:01;24.10;77.90
23769;DHT22;12064;50.890;5.424;2023-07-13T14:41:55;24.10;78.10
23769;DHT22;12064;50.890;5.424;2023-07-13T14:50:46;24.10;78.10
23769;DHT22;12064;50.890;5.424;2023-07-13T14:59:37;24.20;78.10
23769;DHT22;12064;50.890;5.424;2023-07-13T15:08:28;24.20;78.40
23769;DHT22;12064;50.890;5.424;2023-07-13T15:17:28;24.20;78.60
23769;DHT22;12064;50.890;5.424;2023-07-13T15:26:21;24.30;78.30
23769;DHT22;12064;50.890;5.424;2023-07-13T15:35:24;24.30;78.20
23769;DHT22;12064;50.890;5.424;2023-07-13T15:53:13;24.30;78.20
23769;DHT22;12064;50.890;5.424;2023-07-13T16:02:20;24.40;78.30
23769;DHT22;12064;50.890;5.424;2023-07-13T16:11:22;24.40;78.20
23769;DHT22;12064;50.890;5.424;2023-07-13T16:20:14;24.40;78.30
23769;DHT22;12064;50.890;5.424;2023-07-13T16:29:22;24.40;78.40
23769;DHT22;12064;50.890;5.424;2023-07-13T16:38:19;24.40;78.00
23769;DHT22;12064;50.890;5.424;2023-07-13T16:47:15;24.50;77.00
23769;DHT22;12064;50.890;5.424;2023-07-13T16:56:14;24.50;76.80
23769;DHT22;12064;50.890;5.424;2023-07-13T17:05:09;24.50;76.10
23769;DHT22;12064;50.890;5.424;2023-07-13T17:14:01;24.50;76.30
23769;DHT22;12064;50.890;5.424;2023-07-13T17:22:56;24.50;75.60
23769;DHT22;12064;50.890;5.424;2023-07-13T17:31:47;24.50;76.00
23769;DHT22;12064;50.890;5.424;2023-07-13T17:40:38;24.50;77.10
23769;DHT22;12064;50.890;5.424;2023-07-13T17:49:31;24.50;76.50
23769;DHT22;12064;50.890;5.424;2023-07-13T17:58:22;24.50;76.50
23769;DHT22;12064;50.890;5.424;2023-07-13T18:07:13;24.50;76.70
23769;DHT22;12064;50.890;5.424;2023-07-13T18:16:20;24.50;77.00
23769;DHT22;12064;50.890;5.424;2023-07-13T18:25:13;24.50;77.20
23769;DHT22;12064;50.890;5.424;2023-07-13T18:34:04;24.50;77.20
23769;DHT22;12064;50.890;5.424;2023-07-13T18:42:55;24.50;77.20
23769;DHT22;12064;50.890;5.424;2023-07-13T18:51:46;24.50;77.90
23769;DHT22;12064;50.890;5.424;2023-07-13T19:00:41;24.50;78.30
23769;DHT22;12064;50.890;5.424;2023-07-13T19:09:32;24.50;78.90
23769;DHT22;12064;50.890;5.424;2023-07-13T19:18:24;24.50;79.30
23769;DHT22;12064;50.890;5.424;2023-07-13T19:27:15;24.50;79.70
23769;DHT22;12064;50.890;5.424;2023-07-13T19:36:11;24.40;79.40
23769;DHT22;12064;50.890;5.424;2023-07-13T19:45:21;24.20;80.00
23769;DHT22;12064;50.890;5.424;2023-07-13T19:54:14;24.00;81.40
23769;DHT22;12064;50.890;5.424;2023-07-13T20:03:05;23.80;82.90
23769;DHT22;12064;50.890;5.424;2023-07-13T20:11:56;23.80;83.70
23769;DHT22;12064;50.890;5.424;2023-07-13T20:20:46;23.70;82.80
23769;DHT22;12064;50.890;5.424;2023-07-13T20:29:38;23.60;83.40
23769;DHT22;12064;50.890;5.424;2023-07-13T20:38:29;23.50;83.60
23769;DHT22;12064;50.890;5.424;2023-07-13T20:47:23;23.50;84.80
23769;DHT22;12064;50.890;5.424;2023-07-13T20:56:16;23.50;84.30
23769;DHT22;12064;50.890;5.424;2023-07-13T21:05:16;23.60;83.70
23769;DHT22;12064;50.890;5.424;2023-07-13T21:14:08;23.70;83.40
23769;DHT22;12064;50.890;5.424;2023-07-13T21:22:58;23.70;83.70
23769;DHT22;12064;50.890;5.424;2023-07-13T21:31:49;23.80;83.60
23769;DHT22;12064;50.890;5.424;2023-07-13T21:40:41;23.80;83.70
23769;DHT22;12064;50.890;5.424;2023-07-13T21:49:33;23.80;83.70
23769;DHT22;12064;50.890;5.424;2023-07-13T21:58:29;23.80;83.60
23769;DHT22;12064;50.890;5.424;2023-07-13T22:07:20;23.80;83.80
23769;DHT22;12064;50.890;5.424;2023-07-13T22:16:31;23.80;83.20
23769;DHT22;12064;50.890;5.424;2023-07-13T22:25:22;23.70;82.50
23769;DHT22;12064;50.890;5.424;2023-07-13T22:34:14;23.70;81.50
23769;DHT22;12064;50.890;5.424;2023-07-13T22:43:23;23.70;81.00
23769;DHT22;12064;50.890;5.424;2023-07-13T22:52:15;23.70;80.50
23769;DHT22;12064;50.890;5.424;2023-07-13T23:01:23;23.70;80.30
23769;DHT22;12064;50.890;5.424;2023-07-13T23:10:18;23.60;80.30
23769;DHT22;12064;50.890;5.424;2023-07-13T23:19:22;23.60;79.90
23769;DHT22;12064;50.890;5.424;2023-07-13T23:28:16;23.70;79.70
23769;DHT22;12064;50.890;5.424;2023-07-13T23:37:16;23.60;79.60
23769;DHT22;12064;50.890;5.424;2023-07-13T23:55:25;23.60;78.80
